Time;durP1;ratioP1;P1;durP2;ratioP2;P2;SDS_P1;SDS_P2;PMS_P1;PMS_P2;Temp;Humidity;BMP_temperature;BMP_pressure;BME280_temperature;BME280_humidity;BME280_pressure;Samples;Min_cycle;Max_cycle;Signal;HPM_P1;HPM_P2
2021/04/15 00:02:16;;;;;;;9.9;5.7;;;;;;;1.72;100;98946.48;;;;
2021/04/15 00:12:14;;;;;;;10.4;5.2;;;;;;;1.63;100;98939.17;;;;
2021/04/15 00:22:12;;;;;;;8.4;6;;;;;;;1.42;100;98928.18;;;;
2021/04/15 00:32:12;;;;;;;7.9;6.1;;;;;;;1.46;100;98931.16;;;;
2021/04/15 00:42:07;;;;;;;10.8;5.7;;;;;;;1.37;100;98928.11;;;;
2021/04/15 00:52:05;;;;;;;10.4;7.1;;;;;;;1.34;100;98927.78;;;;
2021/04/15 01:02:03;;;;;;;11.3;9;;;;;;;1.21;100;98914.81;;;;
2021/04/15 01:12:00;;;;;;;9.9;6.6;;;;;;;1.21;100;98917.47;;;;
2021/04/15 01:21:58;;;;;;;11;8.2;;;;;;;1.15;100;98915.75;;;;
2021/04/15 01:31:56;;;;;;;10.3;8.8;;;;;;;1.08;100;98905.28;;;;
2021/04/15 01:41:54;;;;;;;11.8;8.7;;;;;;;1.06;100;98898.61;;;;
2021/04/15 01:51:51;;;;;;;11.7;8.3;;;;;;;1.02;100;98898.28;;;;
2021/04/15 02:11:47;;;;;;;13;9;;;;;;;0.98;100;98887.33;;;;
2021/04/15 02:21:44;;;;;;;10;7;;;;;;;0.98;100;98889.98;;;;
2021/04/15 02:31:46;;;;;;;10.8;8.2;;;;;;;0.89;100;98888.77;;;;
2021/04/15 02:41:41;;;;;;;12.6;8.9;;;;;;;0.9;100;98885.05;;;;
2021/04/15 02:51:45;;;;;;;11.8;7.6;;;;;;;0.9;100;98879.75;;;;
2021/04/15 03:01:35;;;;;;;10.9;7.4;;;;;;;0.88;100;98873.88;;;;
2021/04/15 03:11:33;;;;;;;11.9;9.2;;;;;;;0.85;100;98878.86;;;;
2021/04/15 03:21:31;;;;;;;7.7;5.4;;;;;;;0.79;100;98872.67;;;;
2021/04/15 03:31:29;;;;;;;14;9.8;;;;;;;0.75;100;98881.33;;;;
2021/04/15 03:41:26;;;;;;;11.7;8.1;;;;;;;0.67;100;98871.89;;;;
2021/04/15 03:51:24;;;;;;;14.2;11.6;;;;;;;0.59;100;98871.48;;;;
2021/04/15 04:01:22;;;;;;;17.9;14.2;;;;;;;0.61;100;98877.34;;;;
2021/04/15 04:11:19;;;;;;;15.5;13.8;;;;;;;0.6;100;98876.53;;;;
2021/04/15 04:21:17;;;;;;;16.4;11.4;;;;;;;0.68;100;98872.7;;;;
2021/04/15 04:31:15;;;;;;;20.5;13.9;;;;;;;0.71;100;98878.34;;;;
2021/04/15 04:41:13;;;;;;;16.7;11.6;;;;;;;0.64;100;98874.21;;;;
2021/04/15 04:51:10;;;;;;;19.5;15.5;;;;;;;0.72;100;98887.92;;;;
2021/04/15 05:01:08;;;;;;;18.3;13;;;;;;;0.69;100;98879.63;;;;
2021/04/15 05:11:06;;;;;;;16.9;12.9;;;;;;;0.8;100;98873.48;;;;
2021/04/15 05:21:03;;;;;;;14.6;11.7;;;;;;;0.77;100;98882.7;;;;
2021/04/15 05:31:01;;;;;;;16.7;13.6;;;;;;;0.77;100;98877.39;;;;
2021/04/15 05:40:59;;;;;;;19.3;17.2;;;;;;;0.92;100;98875.03;;;;
2021/04/15 05:50:57;;;;;;;20.3;13.6;;;;;;;0.86;100;98885.78;;;;
2021/04/15 06:00:54;;;;;;;22.9;16.5;;;;;;;0.86;100;98885.78;;;;
2021/04/15 06:10:52;;;;;;;24.2;17.1;;;;;;;0.81;100;98873.22;;;;
2021/04/15 06:20:50;;;;;;;22.5;16.4;;;;;;;0.77;100;98873.92;;;;
2021/04/15 06:30:48;;;;;;;29.7;17.2;;;;;;;0.67;100;98879.85;;;;
2021/04/15 06:40:59;;;;;;;31.5;15.3;;;;;;;0.7;100;98874.07;;;;
2021/04/15 06:50:51;;;;;;;23.4;17.4;;;;;;;0.82;100;98866.08;;;;
2021/04/15 07:01:16;;;;;;;22.7;17.5;;;;;;;0.84;100;98864.78;;;;
2021/04/15 07:10:56;;;;;;;24.8;18.1;;;;;;;0.98;100;98866.11;;;;
2021/04/15 07:20:36;;;;;;;19.5;17.5;;;;;;;1.12;100;98866.61;;;;
2021/04/15 07:30:34;;;;;;;20.2;18;;;;;;;1.35;100;98871.8;;;;
2021/04/15 07:40:32;;;;;;;22;15.6;;;;;;;1.55;100;98868.66;;;;
2021/04/15 07:50:30;;;;;;;24.2;14.8;;;;;;;1.59;100;98877.75;;;;
2021/04/15 08:00:28;;;;;;;15.6;12.8;;;;;;;2.02;100;98883.16;;;;
2021/04/15 08:10:40;;;;;;;13.5;11.6;;;;;;;2.26;100;98888.25;;;;
2021/04/15 08:20:24;;;;;;;16.2;8.8;;;;;;;2.27;100;98881.89;;;;
2021/04/15 08:30:22;;;;;;;13;9.8;;;;;;;2.38;100;98881.78;;;;
2021/04/15 08:40:20;;;;;;;13.2;9;;;;;;;2.6;100;98886.3;;;;
2021/04/15 08:50:17;;;;;;;11.7;9.1;;;;;;;2.87;100;98881.81;;;;
2021/04/15 09:00:15;;;;;;;13.5;9.7;;;;;;;2.91;100;98877.6;;;;
2021/04/15 09:10:13;;;;;;;11.5;8.2;;;;;;;2.89;100;98877.84;;;;
2021/04/15 09:20:12;;;;;;;11.5;9.3;;;;;;;3.18;100;98870.41;;;;
2021/04/15 09:30:09;;;;;;;11.9;9;;;;;;;3.21;100;98866.44;;;;
2021/04/15 09:40:08;;;;;;;11.4;8.6;;;;;;;3.14;100;98865.83;;;;
2021/04/15 09:50:05;;;;;;;11.6;7.2;;;;;;;2.86;100;98878.34;;;;
2021/04/15 10:00:04;;;;;;;12.3;7.9;;;;;;;3.16;100;98869.84;;;;
2021/04/15 10:10:01;;;;;;;8.1;6.2;;;;;;;3.04;100;98870.02;;;;
2021/04/15 10:20:01;;;;;;;8.7;6.4;;;;;;;2.92;100;98866.69;;;;
2021/04/15 10:30:07;;;;;;;14.2;7.1;;;;;;;2.96;100;98865.14;;;;
2021/04/15 10:40:08;;;;;;;12.7;10.2;;;;;;;3.04;100;98870.02;;;;
2021/04/15 10:49:53;;;;;;;13.2;7.9;;;;;;;2.74;100;98860.92;;;;
2021/04/15 10:59:51;;;;;;;13.1;8.9;;;;;;;2.79;100;98856.45;;;;
2021/04/15 11:09:49;;;;;;;15;9.6;;;;;;;2.59;100;98866.06;;;;
2021/04/15 11:19:47;;;;;;;13.5;9.8;;;;;;;2.63;100;98867.98;;;;
2021/04/15 11:29:45;;;;;;;13;9;;;;;;;2.9;100;98876.8;;;;
2021/04/15 11:39:43;;;;;;;12.5;10.1;;;;;;;3.19;100;98880.02;;;;
2021/04/15 11:49:43;;;;;;;8.8;6.9;;;;;;;3.15;100;98867.45;;;;
2021/04/15 11:59:40;;;;;;;11.5;10.2;;;;;;;3.09;100;98861.25;;;;
2021/04/15 12:09:37;;;;;;;9.9;8.9;;;;;;;3.14;100;98865.83;;;;
2021/04/15 12:19:35;;;;;;;10.2;8.5;;;;;;;3.08;100;98856.2;;;;
2021/04/15 12:29:33;;;;;;;8.7;7;;;;;;;3.31;100;98853.2;;;;
2021/04/15 12:39:31;;;;;;;9.4;5.8;;;;;;;3.07;100;98860.72;;;;
2021/04/15 12:49:31;;;;;;;10;7.6;;;;;;;2.98;100;98856.91;;;;
2021/04/15 12:59:27;;;;;;;14;11.9;;;;;;;3.27;100;98860.89;;;;
2021/04/15 13:09:25;;;;;;;10.1;7.8;;;;;;;3.41;100;98855.95;;;;
2021/04/15 13:19:23;;;;;;;13.2;10.4;;;;;;;3.71;100;98848.2;;;;
2021/04/15 13:29:21;;;;;;;15.6;9.8;;;;;;;3.39;100;98847.42;;;;
2021/04/15 13:39:19;;;;;;;11.5;7.1;;;;;;;3.49;100;98853.63;;;;
2021/04/15 13:49:20;;;;;;;14.2;9.8;;;;;;;3.63;100;98854;;;;
2021/04/15 13:59:15;;;;;;;13;8.9;;;;;;;3.43;100;98848.52;;;;
2021/04/15 14:09:13;;;;;;;12.3;8.9;;;;;;;3.3;100;98855.06;;;;
2021/04/15 14:19:11;;;;;;;8.9;6.6;;;;;;;3.25;100;98848.9;;;;
2021/04/15 14:29:10;;;;;;;9.9;7.8;;;;;;;3.52;100;98858.45;;;;
2021/04/15 14:39:08;;;;;;;11.5;7.8;;;;;;;3.31;100;98856.67;;;;
2021/04/15 14:49:06;;;;;;;9.3;6;;;;;;;3.17;100;98847.49;;;;
2021/04/15 14:59:04;;;;;;;12.5;9.1;;;;;;;3.04;100;98851.38;;;;
2021/04/15 15:09:02;;;;;;;12.2;7.5;;;;;;;2.8;100;98839.43;;;;
2021/04/15 15:19:01;;;;;;;9.5;7.1;;;;;;;2.84;100;98853.84;;;;
2021/04/15 15:28:59;;;;;;;13.3;7.8;;;;;;;2.67;100;98845.16;;;;
2021/04/15 15:38:56;;;;;;;11.4;7.3;;;;;;;2.79;100;98837.81;;;;
2021/04/15 15:48:54;;;;;;;10.2;7.7;;;;;;;2.62;100;98836.3;;;;
2021/04/15 15:58:52;;;;;;;10.8;7.5;;;;;;;2.3;100;98834.34;;;;
2021/04/15 16:08:50;;;;;;;10.4;7;;;;;;;2.31;100;98843.93;;;;
2021/04/15 16:18:48;;;;;;;11.8;7.7;;;;;;;2.29;100;98846.02;;;;
2021/04/15 16:28:46;;;;;;;9.8;7.9;;;;;;;2.12;100;98839.17;;;;
2021/04/15 16:38:44;;;;;;;13.4;7.8;;;;;;;2;100;98837.42;;;;
2021/04/15 16:48:42;;;;;;;13.3;10.2;;;;;;;2.05;100;98846.52;;;;
2021/04/15 16:58:41;;;;;;;13.4;11.3;;;;;;;2.14;100;98842.38;;;;
2021/04/15 17:08:38;;;;;;;12;9.1;;;;;;;2.07;100;98837.25;;;;
2021/04/15 17:18:36;;;;;;;24.3;13.4;;;;;;;1.91;100;98844.2;;;;
2021/04/15 17:28:34;;;;;;;18.7;15.5;;;;;;;1.95;100;98858.61;;;;
2021/04/15 17:38:32;;;;;;;16.8;11.2;;;;;;;1.78;100;98857.84;;;;
2021/04/15 17:48:29;;;;;;;19.2;15.2;;;;;;;1.75;100;98873.45;;;;
2021/04/15 17:58:27;;;;;;;24;18.2;;;;;;;1.74;100;98861.21;;;;
2021/04/15 18:08:25;;;;;;;20.5;15.7;;;;;;;1.61;100;98857.05;;;;
2021/04/15 18:18:23;;;;;;;21.4;14.4;;;;;;;1.72;100;98881.92;;;;
2021/04/15 18:28:21;;;;;;;19.3;17.3;;;;;;;1.77;100;98890.76;;;;
2021/04/15 18:38:19;;;;;;;18;13.8;;;;;;;1.64;100;98895.59;;;;
2021/04/15 18:48:17;;;;;;;19.7;16.5;;;;;;;1.6;100;98889.96;;;;
2021/04/15 18:58:15;;;;;;;23.9;19.4;;;;;;;1.66;100;98888.2;;;;
2021/04/15 19:08:13;;;;;;;25.2;18.5;;;;;;;1.58;100;98881.45;;;;
2021/04/15 19:18:11;;;;;;;20.4;17.3;;;;;;;1.57;100;98871.86;;;;
2021/04/15 19:28:08;;;;;;;28.2;17.6;;;;;;;1.54;100;98872.34;;;;
2021/04/15 19:38:06;;;;;;;24.7;15.8;;;;;;;1.56;100;98880.89;;;;
2021/04/15 19:48:04;;;;;;;23.8;18;;;;;;;1.56;100;98872.92;;;;
2021/04/15 19:58:02;;;;;;;20.2;18;;;;;;;1.56;100;98869.46;;;;
2021/04/15 20:08:00;;;;;;;27.5;21.4;;;;;;;1.55;100;98867.84;;;;
2021/04/15 20:17:58;;;;;;;29.8;22.5;;;;;;;1.51;100;98863.02;;;;
2021/04/15 20:27:56;;;;;;;31.2;24.5;;;;;;;1.61;100;98854.39;;;;
2021/04/15 20:37:54;;;;;;;29.2;24.3;;;;;;;1.49;100;98853.69;;;;
2021/04/15 20:47:53;;;;;;;39.2;29.3;;;;;;;1.51;100;98851.59;;;;
2021/04/15 20:57:50;;;;;;;31.4;25;;;;;;;1.51;100;98857.7;;;;
2021/04/15 21:07:48;;;;;;;37.5;28.3;;;;;;;1.55;100;98850.06;;;;
2021/04/15 21:17:46;;;;;;;43.2;26.9;;;;;;;1.55;100;98847.41;;;;
2021/04/15 21:27:44;;;;;;;44;33.4;;;;;;;1.58;100;98835.48;;;;
2021/04/15 21:37:42;;;;;;;45.2;33.3;;;;;;;1.49;100;98837.76;;;;
2021/04/15 21:47:41;;;;;;;39.9;32;;;;;;;1.53;100;98830.11;;;;
2021/04/15 21:57:38;;;;;;;32.5;27.4;;;;;;;1.49;100;98827.91;;;;
2021/04/15 22:07:36;;;;;;;35.6;29.1;;;;;;;1.55;100;98836.78;;;;
2021/04/15 22:17:33;;;;;;;36.4;30.8;;;;;;;1.58;100;98849.57;;;;
2021/04/15 22:27:31;;;;;;;29.7;26.1;;;;;;;1.53;100;98839.66;;;;
2021/04/15 22:37:29;;;;;;;33.4;27.4;;;;;;;1.6;100;98834.18;;;;
2021/04/15 22:47:27;;;;;;;40.4;30.3;;;;;;;1.54;100;98835.16;;;;
2021/04/15 22:57:25;;;;;;;39.7;28.5;;;;;;;1.65;100;98838.77;;;;
2021/04/15 23:07:23;;;;;;;32.9;28.1;;;;;;;1.61;100;98824.36;;;;
2021/04/15 23:17:21;;;;;;;33.1;23.4;;;;;;;1.55;100;98826.16;;;;
2021/04/15 23:27:19;;;;;;;35.3;27.3;;;;;;;1.57;100;98810.77;;;;
2021/04/15 23:37:17;;;;;;;42.8;26.1;;;;;;;1.58;100;98803.61;;;;
2021/04/15 23:47:15;;;;;;;26.3;22.9;;;;;;;1.63;100;98801.84;;;;
2021/04/15 23:57:13;;;;;;;28.1;21.7;;;;;;;1.56;100;98795.91;;;;
